createdAt,value
2023-03-14T00:01:21.325Z,96404.94
2023-03-14T00:03:48.951Z,96417.53
2023-03-14T00:06:16.724Z,96404.94
2023-03-14T00:08:45.488Z,96428.69
2023-03-14T00:11:18.827Z,96419.03
2023-03-14T00:13:49.387Z,96424.25
2023-03-14T00:16:16.345Z,96418.31
2023-03-14T00:18:43.208Z,96410.84
2023-03-14T00:21:12.159Z,96406.78
2023-03-14T00:23:40.837Z,96395.31
2023-03-14T00:26:10.868Z,96379.59
2023-03-14T00:28:42.542Z,96377.91
2023-03-14T00:31:12.794Z,96372.13
2023-03-14T00:33:42.158Z,96362.31
2023-03-14T00:36:13.129Z,96361.44
2023-03-14T00:38:41.911Z,96369.13
2023-03-14T00:41:11.785Z,96357.88
2023-03-14T00:43:39.161Z,96343.75
2023-03-14T00:46:07.323Z,96359.69
2023-03-14T00:48:34.457Z,96341.28
2023-03-14T00:51:02.312Z,96339.91
2023-03-14T00:53:29.106Z,96326.75
2023-03-14T00:55:56.558Z,96296.25
2023-03-14T00:58:23.514Z,96292.31
2023-03-14T01:00:50.820Z,96279.97
2023-03-14T01:03:18.137Z,96257.50
2023-03-14T01:05:46.665Z,96218.75
2023-03-14T01:08:13.498Z,96188.41
2023-03-14T01:10:41.702Z,96163.69
2023-03-14T01:13:10.013Z,96161.53
2023-03-14T01:15:39.162Z,96149.91
2023-03-14T01:18:10.776Z,96162.50
2023-03-14T01:20:38.631Z,96161.56
2023-03-14T01:23:09.776Z,96152.84
2023-03-14T01:25:42.197Z,96155.34
2023-03-14T01:28:09.690Z,96149.09
2023-03-14T01:30:36.521Z,96143.03
2023-03-14T01:33:03.663Z,96141.00
2023-03-14T01:35:32.267Z,96137.31
2023-03-14T01:38:01.329Z,96114.34
2023-03-14T01:40:28.361Z,96111.34
2023-03-14T01:42:58.789Z,96117.88
2023-03-14T01:46:03.771Z,96117.59
2023-03-14T01:48:37.197Z,96128.91
2023-03-14T01:51:12.151Z,96125.84
2023-03-14T01:53:42.675Z,96151.16
2023-03-14T01:56:14.885Z,96159.16
2023-03-14T01:58:46.364Z,96161.16
2023-03-14T02:01:15.826Z,96144.09
2023-03-14T02:03:58.015Z,96133.56
2023-03-14T02:06:41.945Z,96127.28
2023-03-14T02:09:08.899Z,96123.75
2023-03-14T02:11:36.702Z,96125.22
2023-03-14T02:14:31.190Z,96119.63
2023-03-14T02:17:20.465Z,96111.28
2023-03-14T02:20:29.187Z,96106.00
2023-03-14T02:22:59.520Z,96105.22
2023-03-14T02:25:45.439Z,96127.28
2023-03-14T02:28:13.097Z,96116.22
2023-03-14T02:30:40.591Z,96128.69
2023-03-14T02:33:14.782Z,96128.84
2023-03-14T02:36:00.049Z,96151.66
2023-03-14T02:39:04.628Z,96157.34
2023-03-14T02:41:33.137Z,96144.88
2023-03-14T02:44:04.617Z,96152.28
2023-03-14T02:46:35.263Z,96150.91
2023-03-14T02:49:08.679Z,96150.59
2023-03-14T02:51:39.147Z,96142.88
2023-03-14T02:54:06.762Z,96138.31
2023-03-14T02:56:33.780Z,96133.75
2023-03-14T02:59:06.420Z,96113.44
2023-03-14T03:01:43.229Z,96102.75
2023-03-14T03:04:10.143Z,96092.88
2023-03-14T03:06:37.113Z,96101.09
2023-03-14T03:09:04.780Z,96087.56
2023-03-14T03:11:32.855Z,96088.88
2023-03-14T03:14:02.691Z,96097.13
2023-03-14T03:16:32.175Z,96095.41
2023-03-14T03:19:00.977Z,96098.97
2023-03-14T03:21:28.076Z,96083.63
2023-03-14T03:23:55.337Z,96073.28
2023-03-14T03:26:22.318Z,96071.63
2023-03-14T03:28:56.701Z,96067.09
2023-03-14T03:31:24.680Z,96077.78
2023-03-14T03:33:52.223Z,96070.03
2023-03-14T03:36:23.833Z,96058.28
2023-03-14T03:38:51.708Z,96047.03
2023-03-14T03:41:19.310Z,96069.81
2023-03-14T03:43:51.786Z,96076.03
2023-03-14T03:46:19.806Z,96083.38
2023-03-14T03:48:47.088Z,96081.81
2023-03-14T03:51:15.742Z,96087.25
2023-03-14T03:53:43.629Z,96090.22
2023-03-14T03:56:13.487Z,96089.91
2023-03-14T03:58:45.280Z,96085.03
2023-03-14T04:01:12.359Z,96088.19
2023-03-14T04:03:41.632Z,96101.88
2023-03-14T04:06:12.261Z,96113.31
2023-03-14T04:08:41.935Z,96098.91
2023-03-14T04:11:18.326Z,96097.00
2023-03-14T04:13:56.174Z,96098.81
2023-03-14T04:16:27.653Z,96113.78
2023-03-14T04:19:03.535Z,96117.84
2023-03-14T04:21:32.386Z,96122.28
2023-03-14T04:24:01.111Z,96126.28
2023-03-14T04:26:32.253Z,96118.25
2023-03-14T04:28:59.920Z,96114.47
2023-03-14T04:31:27.785Z,96113.38
2023-03-14T04:33:55.688Z,96119.06
2023-03-14T04:36:32.796Z,96117.34
2023-03-14T04:39:05.278Z,96129.31
2023-03-14T04:41:41.241Z,96120.53
2023-03-14T04:44:11.154Z,96117.78
2023-03-14T04:46:38.208Z,96126.69
2023-03-14T04:49:07.466Z,96121.63
2023-03-14T04:51:34.586Z,96124.91
2023-03-14T04:54:01.964Z,96117.16
2023-03-14T04:56:29.724Z,96121.19
2023-03-14T04:58:57.470Z,96107.63
2023-03-14T05:01:27.118Z,96112.53
2023-03-14T05:04:16.179Z,96100.63
2023-03-14T05:06:53.089Z,96103.78
2023-03-14T05:09:29.458Z,96097.50
2023-03-14T05:12:15.662Z,96091.63
2023-03-14T05:15:01.708Z,96099.78
2023-03-14T05:17:50.396Z,96091.44
2023-03-14T05:20:46.457Z,96094.34
2023-03-14T05:23:41.201Z,96090.72
2023-03-14T05:26:34.306Z,96103.47
2023-03-14T05:29:21.544Z,96075.16
2023-03-14T05:32:27.087Z,96060.56
2023-03-14T05:35:03.674Z,96065.41
2023-03-14T05:37:44.206Z,96072.94
2023-03-14T05:40:31.499Z,96092.50
2023-03-14T05:43:14.548Z,96081.66
2023-03-14T05:45:58.676Z,96088.97
2023-03-14T05:48:35.048Z,96087.56
2023-03-14T05:51:17.544Z,96092.09
2023-03-14T05:54:04.355Z,96087.50
2023-03-14T05:57:01.370Z,96090.50
2023-03-14T05:59:47.445Z,96087.53
2023-03-14T06:02:35.394Z,96095.53
2023-03-14T06:05:13.724Z,96092.34
2023-03-14T06:07:42.073Z,96087.66
2023-03-14T06:10:12.510Z,96076.88
2023-03-14T06:12:41.246Z,96072.66
2023-03-14T06:15:09.133Z,96084.84
2023-03-14T06:17:38.837Z,96095.56
2023-03-14T06:20:13.031Z,96112.69
2023-03-14T06:22:41.511Z,96104.06
2023-03-14T06:25:09.904Z,96115.88
2023-03-14T06:27:37.549Z,96111.69
2023-03-14T06:30:08.432Z,96101.41
2023-03-14T06:32:35.813Z,96108.69
2023-03-14T06:35:08.200Z,96109.56
2023-03-14T06:37:38.582Z,96103.03
2023-03-14T06:40:10.550Z,96102.88
2023-03-14T06:42:50.147Z,96102.66
2023-03-14T06:45:18.174Z,96104.59
2023-03-14T06:47:46.470Z,96099.66
2023-03-14T06:50:13.985Z,96104.34
2023-03-14T06:52:47.180Z,96106.63
2023-03-14T06:55:21.261Z,96107.13
2023-03-14T06:57:50.374Z,96096.34
2023-03-14T07:00:23.266Z,96126.84
2023-03-14T07:02:55.231Z,96131.56
2023-03-14T07:05:29.057Z,96136.53
2023-03-14T07:08:00.142Z,96134.22
2023-03-14T07:10:28.028Z,96145.25
2023-03-14T07:12:55.755Z,96141.34
2023-03-14T07:15:28.039Z,96142.28
2023-03-14T07:18:03.258Z,96144.63
2023-03-14T07:20:35.833Z,96135.69
2023-03-14T07:23:04.547Z,96153.25
2023-03-14T07:25:46.789Z,96130.34
2023-03-14T07:28:16.902Z,96137.06
2023-03-14T07:30:53.611Z,96140.09
2023-03-14T07:33:31.841Z,96126.53
2023-03-14T07:36:01.517Z,96134.31
2023-03-14T07:38:34.312Z,96140.13
2023-03-14T07:41:35.326Z,96126.56
2023-03-14T07:44:25.053Z,96123.25
2023-03-14T07:46:53.454Z,96127.00
2023-03-14T07:49:21.056Z,96119.63
2023-03-14T07:51:51.549Z,96125.38
2023-03-14T07:54:20.918Z,96131.34
2023-03-14T07:56:48.569Z,96123.38
2023-03-14T07:59:16.712Z,96123.78
2023-03-14T08:01:44.500Z,96128.22
2023-03-14T08:04:12.793Z,96137.66
2023-03-14T08:06:42.815Z,96124.78
2023-03-14T08:09:12.208Z,96123.47
2023-03-14T08:11:40.259Z,96120.38
2023-03-14T08:14:07.488Z,96127.75
2023-03-14T08:16:34.843Z,96130.00
2023-03-14T08:19:02.610Z,96124.06
2023-03-14T08:21:30.043Z,96134.81
2023-03-14T08:23:57.896Z,96136.09
2023-03-14T08:26:25.310Z,96133.09
2023-03-14T08:28:56.302Z,96136.03
2023-03-14T08:31:23.937Z,96130.25
2023-03-14T08:33:53.135Z,96139.88
2023-03-14T08:36:23.827Z,96128.44
2023-03-14T08:38:51.128Z,96140.78
2023-03-14T08:41:18.188Z,96140.56
2023-03-14T08:43:45.753Z,96146.34
2023-03-14T08:46:13.041Z,96143.03
2023-03-14T08:48:41.523Z,96137.47
2023-03-14T08:51:15.567Z,96139.47
2023-03-14T08:53:43.310Z,96131.03
2023-03-14T08:56:14.166Z,96133.09
2023-03-14T08:58:47.876Z,96139.38
2023-03-14T09:01:15.739Z,96143.09
2023-03-14T09:03:43.853Z,96137.34
2023-03-14T09:06:17.887Z,96161.22
2023-03-14T09:08:48.943Z,96163.94
2023-03-14T09:11:20.152Z,96167.69
2023-03-14T09:13:48.190Z,96176.16
2023-03-14T09:16:19.337Z,96169.59
2023-03-14T09:18:47.591Z,96183.22
2023-03-14T09:21:14.822Z,96179.59
2023-03-14T09:23:43.285Z,96184.09
2023-03-14T09:26:11.333Z,96185.25
2023-03-14T09:28:38.772Z,96183.88
2023-03-14T09:31:10.969Z,96175.22
2023-03-14T09:33:38.539Z,96170.78
2023-03-14T09:36:09.449Z,96165.00
2023-03-14T09:38:38.445Z,96158.19
2023-03-14T09:41:19.055Z,96156.91
2023-03-14T09:43:54.346Z,96144.09
2023-03-14T09:46:29.218Z,96152.00
2023-03-14T09:48:56.281Z,96161.72
2023-03-14T09:51:24.800Z,96166.47
2023-03-14T09:53:54.374Z,96153.13
2023-03-14T09:56:28.209Z,96159.03
2023-03-14T09:59:02.096Z,96141.94
2023-03-14T10:01:32.990Z,96153.81
2023-03-14T10:04:08.051Z,96148.97
2023-03-14T10:06:36.295Z,96154.34
2023-03-14T10:09:06.183Z,96150.78
2023-03-14T10:11:33.042Z,96148.94
2023-03-14T10:14:10.030Z,96155.22
2023-03-14T10:16:43.097Z,96148.94
2023-03-14T10:19:22.118Z,96145.13
2023-03-14T10:21:54.532Z,96145.72
2023-03-14T10:24:26.094Z,96148.97
2023-03-14T10:26:59.616Z,96148.56
2023-03-14T10:29:27.547Z,96139.00
2023-03-14T10:32:06.193Z,96148.13
2023-03-14T10:34:41.034Z,96148.00
2023-03-14T10:37:27.287Z,96148.38
2023-03-14T10:40:07.244Z,96159.56
2023-03-14T10:42:48.418Z,96147.47
2023-03-14T10:45:40.812Z,96149.09
2023-03-14T10:48:21.972Z,96137.50
2023-03-14T10:50:55.614Z,96144.53
2023-03-14T10:53:25.945Z,96144.72
2023-03-14T10:55:57.076Z,96146.91
2023-03-14T10:58:34.922Z,96144.63
2023-03-14T11:01:21.602Z,96151.25
2023-03-14T11:03:57.852Z,96150.72
2023-03-14T11:06:33.481Z,96150.38
2023-03-14T11:09:10.737Z,96153.78
2023-03-14T11:11:41.103Z,96153.06
2023-03-14T11:14:42.375Z,96157.13
2023-03-14T11:17:32.364Z,96156.84
2023-03-14T11:20:21.706Z,96154.03
2023-03-14T11:23:09.162Z,96148.41
2023-03-14T11:25:52.549Z,96147.50
2023-03-14T11:28:41.519Z,96137.84
2023-03-14T11:31:37.606Z,96149.63
2023-03-14T11:34:19.772Z,96138.03
2023-03-14T11:37:01.981Z,96131.38
2023-03-14T11:39:41.314Z,96132.41
2023-03-14T11:42:14.351Z,96128.84
2023-03-14T11:44:49.903Z,96141.63
2023-03-14T11:47:39.036Z,96142.44
2023-03-14T11:50:27.734Z,96137.44
2023-03-14T11:53:06.024Z,96138.47
2023-03-14T11:55:37.935Z,96132.16
2023-03-14T11:58:14.053Z,96118.94
2023-03-14T12:00:43.382Z,96130.88
2023-03-14T12:03:25.764Z,96124.53
2023-03-14T12:06:07.493Z,96112.47
2023-03-14T12:09:01.254Z,96117.16
2023-03-14T12:11:52.552Z,96121.78
2023-03-14T12:14:32.153Z,96125.63
2023-03-14T12:17:24.973Z,96117.75
2023-03-14T12:20:22.813Z,96124.88
2023-03-14T12:23:12.507Z,96125.84
2023-03-14T12:25:43.486Z,96116.91
2023-03-14T12:28:23.059Z,96122.09
2023-03-14T12:30:50.397Z,96125.16
2023-03-14T12:33:18.925Z,96130.56
2023-03-14T12:36:07.259Z,96114.69
2023-03-14T12:38:37.286Z,96115.09
2023-03-14T12:41:07.239Z,96111.28
2023-03-14T12:43:38.513Z,96111.25
2023-03-14T12:46:18.664Z,96100.00
2023-03-14T12:48:57.003Z,96094.13
2023-03-14T12:52:01.125Z,96091.16
2023-03-14T12:54:44.477Z,96101.81
2023-03-14T12:57:49.689Z,96097.63
2023-03-14T13:00:21.286Z,96098.94
2023-03-14T13:02:50.984Z,96108.66
2023-03-14T13:05:26.697Z,96095.94
2023-03-14T13:08:02.330Z,96092.38
2023-03-14T13:10:48.368Z,96093.38
2023-03-14T13:13:21.933Z,96091.97
2023-03-14T13:16:02.296Z,96098.53
2023-03-14T13:18:42.184Z,96092.47
2023-03-14T13:21:28.209Z,96088.16
2023-03-14T13:23:59.410Z,96088.75
2023-03-14T13:26:50.018Z,96083.63
2023-03-14T13:29:19.073Z,96089.78
2023-03-14T13:31:49.744Z,96091.97
2023-03-14T13:34:22.199Z,96090.72
2023-03-14T13:36:57.392Z,96081.28
2023-03-14T13:39:27.487Z,96089.59
2023-03-14T13:45:20.831Z,96084.16
2023-03-14T13:47:53.298Z,96072.97
2023-03-14T13:50:23.242Z,96075.06
2023-03-14T13:52:58.438Z,96072.56
2023-03-14T13:55:26.596Z,96067.44
2023-03-14T13:58:05.246Z,96072.34
2023-03-14T14:00:34.497Z,96076.44
2023-03-14T14:03:02.337Z,96056.00
2023-03-14T14:05:32.547Z,96059.47
2023-03-14T14:08:00.370Z,96054.59
2023-03-14T14:10:30.939Z,96056.97
2023-03-14T14:13:06.498Z,96055.19
2023-03-14T14:15:38.330Z,96057.38
2023-03-14T14:18:12.490Z,96049.09
2023-03-14T14:20:47.524Z,96054.28
2023-03-14T14:23:15.730Z,96042.09
2023-03-14T14:25:47.467Z,96032.03
2023-03-14T14:28:39.520Z,96050.44
2023-03-14T14:31:16.400Z,96052.06
2023-03-14T14:33:48.456Z,96049.19
2023-03-14T14:36:26.479Z,96041.09
2023-03-14T14:39:06.583Z,96029.72
2023-03-14T14:41:40.859Z,96050.81
2023-03-14T14:44:14.418Z,96046.97
2023-03-14T14:46:43.584Z,96051.13
2023-03-14T14:49:15.405Z,96060.84
2023-03-14T14:51:49.126Z,96060.69
2023-03-14T14:54:35.235Z,96060.28
2023-03-14T14:57:07.275Z,96059.25
2023-03-14T14:59:44.924Z,96053.59
2023-03-14T15:02:33.940Z,96053.53
2023-03-14T15:05:02.079Z,96055.47
2023-03-14T15:07:29.648Z,96041.13
2023-03-14T15:09:57.489Z,96040.03
2023-03-14T15:12:26.133Z,96048.47
2023-03-14T15:14:53.361Z,96042.09
2023-03-14T15:17:23.309Z,96051.38
2023-03-14T15:19:50.391Z,96045.75
2023-03-14T15:22:17.408Z,96037.38
2023-03-14T15:24:45.228Z,96049.88
2023-03-14T15:27:16.352Z,96032.03
2023-03-14T15:29:43.475Z,96025.88
2023-03-14T15:32:15.278Z,96048.75
2023-03-14T15:34:44.049Z,96047.19
2023-03-14T15:37:18.385Z,96054.88
2023-03-14T15:39:47.567Z,96055.75
2023-03-14T15:42:18.104Z,96058.44
2023-03-14T15:44:46.098Z,96056.06
2023-03-14T15:47:13.224Z,96056.03
2023-03-14T15:49:40.727Z,96061.97
2023-03-14T15:52:09.899Z,96067.75
2023-03-14T15:54:36.858Z,96057.44
2023-03-14T15:57:04.554Z,96063.72
2023-03-14T15:59:32.742Z,96069.06
2023-03-14T16:01:59.940Z,96070.50
2023-03-14T16:04:30.327Z,96060.38
2023-03-14T16:06:57.580Z,96059.53
2023-03-14T16:09:25.905Z,96067.81
2023-03-14T16:11:53.477Z,96064.88
2023-03-14T16:14:20.435Z,96051.47
2023-03-14T16:16:54.097Z,96062.38
2023-03-14T16:19:21.464Z,96073.63
2023-03-14T16:21:51.732Z,96064.75
2023-03-14T16:24:19.955Z,96054.88
2023-03-14T16:26:49.960Z,96061.53
2023-03-14T16:29:17.216Z,96075.44
2023-03-14T16:31:44.967Z,96075.84
2023-03-14T16:34:12.953Z,96083.44
2023-03-14T16:36:40.058Z,96070.47
2023-03-14T16:39:07.737Z,96073.66
2023-03-14T16:41:35.552Z,96080.09
2023-03-14T16:44:03.472Z,96077.31
2023-03-14T16:46:30.962Z,96075.19
2023-03-14T16:48:58.607Z,96092.72
2023-03-14T16:51:25.694Z,96089.50
2023-03-14T16:53:53.720Z,96092.34
2023-03-14T16:56:24.773Z,96095.81
2023-03-14T16:58:51.915Z,96107.31
2023-03-14T17:01:20.229Z,96129.22
2023-03-14T17:03:52.149Z,96132.25
2023-03-14T17:06:27.952Z,96184.00
2023-03-14T17:08:58.470Z,96182.59
2023-03-14T17:11:25.878Z,96198.25
2023-03-14T17:13:55.345Z,96200.69
2023-03-14T17:16:24.935Z,96201.81
2023-03-14T17:18:52.111Z,96205.56
2023-03-14T17:21:19.244Z,96220.47
2023-03-14T17:23:46.439Z,96209.88
2023-03-14T17:26:13.870Z,96215.91
2023-03-14T17:28:41.515Z,96225.72
2023-03-14T17:31:17.381Z,96221.38
2023-03-14T17:33:46.615Z,96222.25
2023-03-14T17:36:15.806Z,96238.38
2023-03-14T17:38:43.366Z,96237.69
2023-03-14T17:41:14.089Z,96235.41
2023-03-14T17:43:43.820Z,96240.03
2023-03-14T17:46:15.295Z,96239.63
2023-03-14T17:48:44.827Z,96250.97
2023-03-14T17:51:13.351Z,96247.06
2023-03-14T17:53:40.640Z,96261.13
2023-03-14T17:56:08.569Z,96263.94
2023-03-14T17:58:38.873Z,96266.22
2023-03-14T18:01:21.778Z,96284.31
2023-03-14T18:03:49.377Z,96293.34
2023-03-14T18:06:19.839Z,96291.59
2023-03-14T18:08:47.648Z,96307.63
2023-03-14T18:11:19.424Z,96317.59
2023-03-14T18:13:48.891Z,96324.72
2023-03-14T18:16:16.292Z,96340.28
2023-03-14T18:18:47.750Z,96350.41
2023-03-14T18:21:16.742Z,96357.53
2023-03-14T18:24:09.106Z,96390.44
2023-03-14T18:26:36.127Z,96395.78
2023-03-14T18:29:03.346Z,96419.47
2023-03-14T18:31:35.143Z,96447.06
2023-03-14T18:34:03.074Z,96464.84
2023-03-14T18:36:30.613Z,96498.19
2023-03-14T18:39:00.671Z,96487.97
2023-03-14T18:41:28.639Z,96511.25
2023-03-14T18:43:55.759Z,96503.00
2023-03-14T18:46:25.965Z,96529.72
2023-03-14T18:48:58.553Z,96539.16
2023-03-14T18:51:29.138Z,96549.03
2023-03-14T18:54:10.843Z,96569.09
2023-03-14T18:56:41.319Z,96563.94
2023-03-14T18:59:09.801Z,96589.97
2023-03-14T19:01:38.262Z,96603.72
2023-03-14T19:04:10.475Z,96611.09
2023-03-14T19:06:38.589Z,96616.66
2023-03-14T19:09:09.416Z,96629.81
2023-03-14T19:11:36.845Z,96640.06
2023-03-14T19:14:10.134Z,96645.16
2023-03-14T19:16:37.802Z,96635.91
2023-03-14T19:19:04.835Z,96644.91
2023-03-14T19:21:36.411Z,96678.53
2023-03-14T19:24:06.721Z,96692.66
2023-03-14T19:26:36.349Z,96695.00
2023-03-14T19:29:03.300Z,96699.75
2023-03-14T19:31:31.514Z,96714.63
2023-03-14T19:34:00.154Z,96727.19
2023-03-14T19:36:29.676Z,96749.94
2023-03-14T19:39:04.039Z,96758.81
2023-03-14T19:41:32.454Z,96780.25
2023-03-14T19:44:04.337Z,96772.84
2023-03-14T19:46:41.910Z,96808.44
2023-03-14T19:49:22.840Z,96812.59
2023-03-14T19:51:53.656Z,96828.28
2023-03-14T19:54:23.296Z,96837.59
2023-03-14T19:56:52.597Z,96830.47
2023-03-14T19:59:22.065Z,96854.53
2023-03-14T20:01:55.327Z,96868.41
2023-03-14T20:04:26.746Z,96871.66
2023-03-14T20:06:59.471Z,96869.56
2023-03-14T20:09:28.880Z,96881.13
2023-03-14T20:12:02.050Z,96873.06
2023-03-14T20:14:29.708Z,96890.84
2023-03-14T20:16:59.564Z,96895.56
2023-03-14T20:19:58.382Z,96905.72
2023-03-14T20:22:40.540Z,96913.50
2023-03-14T20:25:13.063Z,96917.38
2023-03-14T20:27:52.504Z,96946.94
2023-03-14T20:30:22.027Z,96954.56
2023-03-14T20:32:51.395Z,96957.28
2023-03-14T20:35:27.484Z,96961.69
2023-03-14T20:37:56.251Z,96966.81
2023-03-14T20:40:31.517Z,96968.22
2023-03-14T20:42:59.282Z,96975.25
2023-03-14T20:45:29.923Z,96986.88
2023-03-14T20:47:58.345Z,96996.91
2023-03-14T20:50:27.448Z,97001.97
2023-03-14T20:52:54.812Z,97006.28
2023-03-14T20:55:22.855Z,97024.47
2023-03-14T20:57:51.107Z,97026.22
2023-03-14T21:00:28.934Z,97033.25
2023-03-14T21:03:11.789Z,97042.81
2023-03-14T21:05:43.062Z,97056.38
2023-03-14T21:08:13.768Z,97062.94
2023-03-14T21:10:41.564Z,97066.41
2023-03-14T21:13:11.356Z,97080.44
2023-03-14T21:15:38.551Z,97080.19
2023-03-14T21:18:07.934Z,97089.22
2023-03-14T21:20:37.124Z,97097.97
2023-03-14T21:23:05.659Z,97095.91
2023-03-14T21:25:35.617Z,97104.94
2023-03-14T21:28:05.736Z,97106.38
2023-03-14T21:30:34.765Z,97099.63
2023-03-14T21:33:02.669Z,97109.38
2023-03-14T21:35:32.310Z,97117.13
2023-03-14T21:37:59.819Z,97118.66
2023-03-14T21:40:28.647Z,97118.09
2023-03-14T21:42:55.546Z,97111.56
2023-03-14T21:45:27.462Z,97119.41
2023-03-14T21:47:56.314Z,97121.44
2023-03-14T21:50:26.455Z,97122.47
2023-03-14T21:52:56.952Z,97129.63
2023-03-14T21:55:28.093Z,97128.19
2023-03-14T21:58:03.451Z,97120.53
2023-03-14T22:00:36.839Z,97120.03
2023-03-14T22:03:12.918Z,97114.03
2023-03-14T22:05:44.989Z,97122.84
2023-03-14T22:08:18.338Z,97124.31
2023-03-14T22:10:50.855Z,97133.66
2023-03-14T22:13:19.186Z,97128.94
2023-03-14T22:15:48.466Z,97141.28
2023-03-14T22:18:17.606Z,97142.34
2023-03-14T22:20:45.170Z,97143.34
2023-03-14T22:23:13.571Z,97140.00
2023-03-14T22:25:49.587Z,97147.28
2023-03-14T22:28:18.695Z,97158.00
2023-03-14T22:30:50.502Z,97150.56
2023-03-14T22:33:19.105Z,97166.66
2023-03-14T22:35:52.950Z,97173.75
2023-03-14T22:38:20.180Z,97173.31
2023-03-14T22:40:49.420Z,97192.91
2023-03-14T22:43:16.629Z,97200.88
2023-03-14T22:45:44.001Z,97200.88
2023-03-14T22:48:11.251Z,97199.31
2023-03-14T22:50:40.449Z,97205.00
2023-03-14T22:53:09.584Z,97208.19
2023-03-14T22:55:37.709Z,97200.53
2023-03-14T22:58:05.290Z,97204.16
2023-03-14T23:00:33.922Z,97202.75
2023-03-14T23:03:01.340Z,97207.22
2023-03-14T23:05:30.506Z,97218.72
2023-03-14T23:07:57.903Z,97210.56
2023-03-14T23:10:26.026Z,97222.56
2023-03-14T23:12:57.883Z,97231.09
2023-03-14T23:15:26.026Z,97237.78
2023-03-14T23:17:54.280Z,97241.56
2023-03-14T23:20:22.444Z,97243.13
2023-03-14T23:22:51.114Z,97237.63
2023-03-14T23:25:22.058Z,97248.75
2023-03-14T23:27:54.575Z,97256.75
2023-03-14T23:30:22.112Z,97238.34
2023-03-14T23:32:49.670Z,97250.75
2023-03-14T23:35:18.651Z,97241.44
2023-03-14T23:37:45.545Z,97249.69
2023-03-14T23:40:12.614Z,97246.75
2023-03-14T23:42:41.298Z,97256.31
2023-03-14T23:45:18.044Z,97259.31
2023-03-14T23:47:45.282Z,97259.97
2023-03-14T23:50:12.896Z,97252.41
2023-03-14T23:52:40.394Z,97262.75
2023-03-14T23:55:08.857Z,97267.34
2023-03-14T23:57:35.947Z,97269.69
